Terminal Aerodrome Forecast
Issued by NWS Central Illinois

Home | Current Version | Previous Version | Text Only | Print | Product List | Glossary On
Versions: 1 2 3 4 5 6 7 8 9 10 11 12 13 14 15 16 17 18 19 20 21 22 23
000
FTUS43 KILX 272338
TAFSPI
TAF
KSPI 272338Z 2800/2824 18012KT P6SM VCSH SCT025 OVC035
      TEMPO 2800/2803 BKN025
     FM280300 18010KT P6SM OVC040
     FM280600 17011KT P6SM VCSH SCT015 OVC035
     FM281200 18010KT P6SM BKN030
     FM281600 18013G20KT P6SM OVC060
     FM282200 19013G20KT P6SM VCTS SCT025CB BKN060=

USA.gov is the U.S. government's official web portal to all federal, state and local government web resources and services.